createdAt,value
2023-07-25T00:00:37.514Z,14.25
2023-07-25T00:03:09.402Z,14.24
2023-07-25T00:05:40.945Z,14.30
2023-07-25T00:08:12.502Z,14.32
2023-07-25T00:10:44.024Z,14.31
2023-07-25T00:13:15.975Z,14.33
2023-07-25T00:15:47.504Z,14.31
2023-07-25T00:18:19.100Z,14.35
2023-07-25T00:20:50.738Z,14.33
2023-07-25T00:23:22.533Z,14.32
2023-07-25T00:25:54.164Z,14.31
2023-07-25T00:28:25.816Z,14.30
2023-07-25T00:30:57.454Z,14.30
2023-07-25T00:33:29.030Z,14.28
2023-07-25T00:36:00.564Z,14.28
2023-07-25T00:38:32.157Z,14.32
2023-07-25T00:41:03.680Z,14.27
2023-07-25T00:43:35.261Z,14.26
2023-07-25T00:46:06.841Z,14.21
2023-07-25T00:48:38.595Z,14.18
2023-07-25T00:51:10.151Z,14.13
2023-07-25T00:53:42.770Z,14.07
2023-07-25T00:56:15.170Z,14.03
2023-07-25T00:58:47.898Z,13.95
2023-07-25T01:01:19.557Z,13.85
2023-07-25T01:03:54.509Z,13.77
2023-07-25T01:06:26.276Z,13.76
2023-07-25T01:08:58.582Z,13.68
2023-07-25T01:11:30.367Z,13.73
2023-07-25T01:14:02.331Z,13.76
2023-07-25T01:16:35.290Z,13.72
2023-07-25T01:19:08.134Z,13.73
2023-07-25T01:21:39.816Z,13.70
2023-07-25T01:24:11.468Z,13.69
2023-07-25T01:26:43.140Z,13.71
2023-07-25T01:29:14.652Z,13.69
2023-07-25T01:31:46.198Z,13.77
2023-07-25T01:34:17.743Z,13.79
2023-07-25T01:36:49.306Z,13.84
2023-07-25T01:39:20.798Z,13.86
2023-07-25T01:41:52.390Z,13.86
2023-07-25T01:44:23.928Z,13.85
2023-07-25T01:46:58.188Z,13.83
2023-07-25T01:49:29.789Z,13.86
2023-07-25T01:52:01.362Z,13.85
2023-07-25T01:54:32.883Z,13.82
2023-07-25T01:57:04.736Z,13.82
2023-07-25T01:59:36.364Z,13.86
2023-07-25T02:02:08.261Z,13.83
2023-07-25T02:04:39.784Z,13.78
2023-07-25T02:07:11.318Z,13.73
2023-07-25T02:09:42.887Z,13.74
2023-07-25T02:12:14.421Z,13.77
2023-07-25T02:14:45.925Z,13.74
2023-07-25T02:17:20.536Z,13.66
2023-07-25T02:19:52.160Z,13.49
2023-07-25T02:22:23.724Z,13.17
2023-07-25T02:24:55.257Z,13.04
2023-07-25T02:27:26.919Z,12.96
2023-07-25T02:29:58.432Z,12.92
2023-07-25T02:32:29.993Z,12.89
2023-07-25T02:35:01.484Z,12.78
2023-07-25T02:37:33.073Z,12.67
2023-07-25T02:40:05.069Z,12.49
2023-07-25T02:42:36.808Z,12.48
2023-07-25T02:45:08.625Z,12.44
2023-07-25T02:47:40.267Z,12.38
2023-07-25T02:50:11.821Z,12.33
2023-07-25T02:52:43.459Z,12.30
2023-07-25T02:55:15.084Z,12.24
2023-07-25T02:57:46.655Z,12.19
2023-07-25T03:00:18.262Z,12.17
2023-07-25T03:02:49.856Z,12.18
2023-07-25T03:05:21.516Z,12.17
2023-07-25T03:07:53.090Z,12.07
2023-07-25T03:10:24.625Z,12.00
2023-07-25T03:12:56.215Z,12.02
2023-07-25T03:15:27.744Z,12.01
2023-07-25T03:17:59.401Z,11.98
2023-07-25T03:20:31.083Z,11.92
2023-07-25T03:23:02.655Z,11.89
2023-07-25T03:25:34.201Z,11.90
2023-07-25T03:28:05.818Z,11.91
2023-07-25T03:30:37.485Z,11.88
2023-07-25T03:33:09.179Z,11.87
2023-07-25T03:35:40.828Z,11.84
2023-07-25T03:38:12.563Z,11.80
2023-07-25T03:40:44.145Z,11.85
2023-07-25T03:43:15.657Z,11.84
2023-07-25T03:45:47.313Z,11.82
2023-07-25T03:48:18.974Z,11.86
2023-07-25T03:50:50.543Z,11.88
2023-07-25T03:53:22.144Z,11.89
2023-07-25T03:55:53.724Z,11.89
2023-07-25T03:58:25.252Z,11.89
2023-07-25T04:00:56.806Z,11.89
2023-07-25T04:03:28.549Z,11.97
2023-07-25T04:06:00.532Z,12.01
2023-07-25T04:08:32.107Z,12.00
2023-07-25T04:11:03.629Z,12.06
2023-07-25T04:13:35.185Z,12.11
2023-07-25T04:16:06.807Z,12.21
2023-07-25T04:18:38.359Z,12.26
2023-07-25T04:21:09.867Z,12.27
2023-07-25T04:23:41.479Z,12.33
2023-07-25T04:26:13.050Z,12.38
2023-07-25T04:28:44.676Z,12.44
2023-07-25T04:31:17.023Z,12.46
2023-07-25T04:33:48.676Z,12.51
2023-07-25T04:36:20.383Z,12.55
2023-07-25T04:38:51.993Z,12.66
2023-07-25T04:41:23.878Z,12.79
2023-07-25T04:43:55.431Z,12.93
2023-07-25T04:46:27.001Z,12.96
2023-07-25T04:48:58.657Z,12.98
2023-07-25T04:51:30.488Z,13.00
2023-07-25T04:54:02.314Z,13.06
2023-07-25T04:56:33.933Z,13.10
2023-07-25T04:59:05.496Z,13.11
2023-07-25T05:01:37.031Z,13.18
2023-07-25T05:04:09.064Z,13.23
2023-07-25T05:06:40.634Z,13.24
2023-07-25T05:09:12.315Z,13.29
2023-07-25T05:11:43.817Z,13.69
2023-07-25T05:14:15.413Z,14.70
2023-07-25T05:16:46.925Z,14.60
2023-07-25T05:19:18.558Z,14.26
2023-07-25T05:21:50.127Z,14.06
2023-07-25T05:24:21.764Z,13.96
2023-07-25T05:26:53.297Z,14.00
2023-07-25T05:29:24.951Z,13.94
2023-07-25T05:31:56.530Z,13.94
2023-07-25T05:34:28.153Z,13.94
2023-07-25T05:36:59.821Z,13.94
2023-07-25T05:39:31.378Z,13.98
2023-07-25T05:42:03.293Z,13.99
2023-07-25T05:44:34.805Z,14.02
2023-07-25T05:47:06.756Z,14.03
2023-07-25T05:49:38.384Z,14.04
2023-07-25T05:52:09.907Z,14.01
2023-07-25T05:54:41.481Z,13.99
2023-07-25T05:57:13.247Z,14.03
2023-07-25T05:59:45.098Z,14.02
2023-07-25T06:02:17.786Z,14.08
2023-07-25T06:04:49.388Z,14.12
2023-07-25T06:07:23.729Z,14.27
2023-07-25T06:09:55.667Z,14.37
2023-07-25T06:12:27.452Z,14.34
2023-07-25T06:14:59.107Z,14.27
2023-07-25T06:17:30.717Z,14.13
2023-07-25T06:20:02.299Z,13.98
2023-07-25T06:22:35.975Z,13.88
2023-07-25T06:25:09.215Z,13.83
2023-07-25T06:27:40.939Z,13.82
2023-07-25T06:30:12.802Z,13.81
2023-07-25T06:32:44.422Z,13.78
2023-07-25T06:35:16.272Z,13.68
2023-07-25T06:37:47.805Z,13.70
2023-07-25T06:40:19.565Z,13.64
2023-07-25T06:42:51.117Z,13.54
2023-07-25T06:45:22.712Z,13.49
2023-07-25T06:47:54.444Z,13.39
2023-07-25T06:50:26.122Z,13.39
2023-07-25T06:52:57.683Z,13.36
2023-07-25T06:55:29.188Z,13.32
2023-07-25T06:58:00.734Z,13.31
2023-07-25T07:00:32.299Z,13.31
2023-07-25T07:03:06.159Z,13.36
2023-07-25T07:05:37.958Z,13.40
2023-07-25T07:08:09.636Z,13.42
2023-07-25T07:10:41.259Z,13.54
2023-07-25T07:13:12.847Z,13.58
2023-07-25T07:15:49.818Z,13.69
2023-07-25T07:18:24.490Z,13.85
2023-07-25T07:20:56.084Z,14.07
2023-07-25T07:23:27.787Z,14.27
2023-07-25T07:25:59.363Z,14.58
2023-07-25T07:28:31.311Z,14.79
2023-07-25T07:31:03.023Z,15.40
2023-07-25T07:33:34.863Z,15.52
2023-07-25T07:36:06.729Z,15.80
2023-07-25T07:38:38.426Z,16.10
2023-07-25T07:41:09.966Z,17.60
2023-07-25T07:43:41.598Z,18.37
2023-07-25T07:46:13.146Z,18.32
2023-07-25T07:48:44.839Z,19.28
2023-07-25T07:51:16.625Z,19.79
2023-07-25T07:53:48.247Z,19.90
2023-07-25T07:56:20.440Z,20.71
2023-07-25T07:58:52.131Z,21.84
2023-07-25T08:01:24.923Z,22.41
2023-07-25T08:03:56.612Z,22.52
2023-07-25T08:06:29.278Z,21.55
2023-07-25T08:09:00.936Z,20.66
2023-07-25T08:11:32.461Z,20.32
2023-07-25T08:14:04.288Z,19.36
2023-07-25T08:16:36.001Z,18.35
2023-07-25T08:19:07.678Z,17.71
2023-07-25T08:21:39.803Z,17.40
2023-07-25T08:24:11.552Z,17.14
2023-07-25T08:26:43.181Z,17.86
2023-07-25T08:29:15.118Z,19.64
2023-07-25T08:31:46.810Z,19.46
2023-07-25T08:34:18.650Z,18.64
2023-07-25T08:36:50.304Z,17.79
2023-07-25T08:39:22.137Z,17.35
2023-07-25T08:41:54.686Z,17.03
2023-07-25T08:44:27.901Z,16.93
2023-07-25T08:47:03.076Z,16.65
2023-07-25T08:49:37.166Z,16.53
2023-07-25T08:52:09.659Z,17.68
2023-07-25T08:54:44.691Z,19.27
2023-07-25T08:57:21.954Z,18.89
2023-07-25T08:59:54.959Z,18.35
2023-07-25T09:02:27.257Z,17.74
2023-07-25T09:04:59.140Z,17.27
2023-07-25T09:07:30.709Z,16.89
2023-07-25T09:10:03.410Z,16.54
2023-07-25T09:12:34.998Z,16.26
2023-07-25T09:15:07.141Z,16.16
2023-07-25T09:17:38.777Z,16.04
2023-07-25T09:20:11.009Z,15.59
2023-07-25T09:22:48.158Z,15.63
2023-07-25T09:25:19.696Z,15.69
2023-07-25T09:27:55.339Z,15.57
2023-07-25T09:30:30.960Z,15.51
2023-07-25T09:33:02.699Z,15.53
2023-07-25T09:35:34.335Z,15.78
2023-07-25T09:38:06.385Z,15.95
2023-07-25T09:40:39.029Z,16.60
2023-07-25T09:43:21.929Z,16.95
2023-07-25T09:45:54.525Z,17.14
2023-07-25T09:48:26.161Z,17.09
2023-07-25T09:50:58.014Z,17.24
2023-07-25T09:53:30.976Z,17.36
2023-07-25T09:56:03.374Z,18.69
2023-07-25T09:58:34.900Z,20.34
2023-07-25T10:01:07.208Z,21.48
2023-07-25T10:03:39.567Z,20.53
2023-07-25T10:06:13.132Z,20.91
2023-07-25T10:08:45.395Z,21.10
2023-07-25T10:11:17.462Z,19.96
2023-07-25T10:13:51.598Z,21.53
2023-07-25T10:16:23.674Z,22.11
2023-07-25T10:18:58.478Z,21.39
2023-07-25T10:21:47.393Z,20.87
2023-07-25T10:24:21.145Z,20.02
2023-07-25T10:26:54.673Z,19.75
2023-07-25T10:29:38.286Z,20.62
2023-07-25T10:32:17.785Z,21.82
2023-07-25T10:35:05.481Z,21.59
2023-07-25T10:37:43.476Z,20.84
2023-07-25T10:40:17.456Z,20.91
2023-07-25T10:45:29.891Z,23.37
2023-07-25T10:48:02.076Z,22.77
2023-07-25T10:50:46.270Z,21.86
2023-07-25T10:53:22.738Z,21.30
2023-07-25T10:56:09.674Z,21.96
2023-07-25T10:59:01.898Z,21.30
2023-07-25T11:01:45.041Z,21.35
2023-07-25T11:04:22.600Z,22.85
2023-07-25T11:07:11.373Z,22.72
2023-07-25T11:09:44.835Z,23.46
2023-07-25T11:12:24.045Z,23.67
2023-07-25T11:14:55.825Z,22.55
2023-07-25T11:17:30.767Z,22.89
2023-07-25T11:20:17.388Z,23.52
2023-07-25T11:23:00.611Z,23.73
2023-07-25T11:25:32.270Z,23.85
2023-07-25T11:28:06.945Z,23.91
2023-07-25T11:30:53.586Z,24.80
2023-07-25T11:33:27.510Z,23.64
2023-07-25T11:35:59.160Z,22.95
2023-07-25T11:38:30.929Z,23.11
2023-07-25T11:41:03.105Z,22.33
2023-07-25T11:43:35.793Z,22.56
2023-07-25T11:46:07.764Z,22.04
2023-07-25T11:48:39.401Z,23.00
2023-07-25T11:51:11.283Z,24.06
2023-07-25T11:53:44.319Z,24.28
2023-07-25T11:56:16.289Z,23.27
2023-07-25T11:58:51.102Z,22.55
2023-07-25T12:01:28.929Z,23.80
2023-07-25T12:04:04.061Z,24.24
2023-07-25T12:06:36.134Z,24.85
2023-07-25T12:09:07.984Z,25.30
2023-07-25T12:11:45.816Z,24.65
2023-07-25T12:14:17.384Z,23.16
2023-07-25T12:16:49.138Z,21.84
2023-07-25T12:19:22.203Z,21.63
2023-07-25T12:22:05.463Z,23.12
2023-07-25T12:24:43.986Z,23.96
2023-07-25T12:27:18.153Z,22.74
2023-07-25T12:29:49.760Z,24.32
2023-07-25T12:32:21.384Z,22.63
2023-07-25T12:35:01.009Z,22.08
2023-07-25T12:37:33.897Z,21.80
2023-07-25T12:40:06.263Z,21.15
2023-07-25T12:42:37.830Z,21.81
2023-07-25T12:45:11.353Z,21.96
2023-07-25T12:47:43.366Z,21.48
2023-07-25T12:50:15.198Z,21.84
2023-07-25T12:52:46.808Z,21.23
2023-07-25T12:55:19.623Z,20.63
2023-07-25T12:57:51.618Z,20.24
2023-07-25T13:00:24.691Z,20.03
2023-07-25T13:02:58.004Z,19.84
2023-07-25T13:05:29.886Z,19.59
2023-07-25T13:08:01.449Z,19.36
2023-07-25T13:10:33.727Z,19.29
2023-07-25T13:13:05.478Z,20.63
2023-07-25T13:15:37.432Z,20.76
2023-07-25T13:18:09.141Z,20.23
2023-07-25T13:20:40.879Z,20.17
2023-07-25T13:23:13.861Z,20.89
2023-07-25T13:25:46.131Z,21.14
2023-07-25T13:28:17.838Z,20.52
2023-07-25T13:30:49.649Z,21.03
2023-07-25T13:33:21.332Z,20.72
2023-07-25T13:35:52.945Z,21.99
2023-07-25T13:38:24.541Z,22.30
2023-07-25T13:40:56.238Z,22.52
2023-07-25T13:43:27.840Z,22.16
2023-07-25T13:46:00.961Z,22.07
2023-07-25T13:48:34.152Z,21.01
2023-07-25T13:51:05.802Z,21.01
2023-07-25T13:53:37.377Z,20.79
2023-07-25T13:56:09.039Z,20.34
2023-07-25T13:58:40.617Z,21.07
2023-07-25T14:01:12.273Z,20.77
2023-07-25T14:03:43.874Z,20.68
2023-07-25T14:06:15.449Z,21.46
2023-07-25T14:08:47.034Z,21.37
2023-07-25T14:11:18.637Z,20.59
2023-07-25T14:13:51.579Z,21.29
2023-07-25T14:16:23.260Z,21.71
2023-07-25T14:18:55.166Z,20.77
2023-07-25T14:21:26.756Z,20.56
2023-07-25T14:23:58.326Z,21.00
2023-07-25T14:26:30.448Z,20.62
2023-07-25T14:29:04.659Z,19.86
2023-07-25T14:31:36.673Z,19.86
2023-07-25T14:34:08.461Z,19.80
2023-07-25T14:36:40.070Z,19.55
2023-07-25T14:39:11.816Z,19.59
2023-07-25T14:41:43.457Z,19.91
2023-07-25T14:44:15.050Z,19.96
2023-07-25T14:46:46.711Z,19.52
2023-07-25T14:49:18.440Z,19.49
2023-07-25T14:51:50.134Z,19.66
2023-07-25T14:54:21.739Z,19.69
2023-07-25T14:56:53.334Z,19.55
2023-07-25T14:59:24.998Z,19.65
2023-07-25T15:01:56.731Z,19.72
2023-07-25T15:04:28.289Z,19.62
2023-07-25T15:07:00.208Z,19.50
2023-07-25T15:09:31.794Z,19.39
2023-07-25T15:12:03.720Z,19.58
2023-07-25T15:14:35.356Z,19.49
2023-07-25T15:17:07.059Z,19.42
2023-07-25T15:19:38.696Z,19.38
2023-07-25T15:22:10.333Z,19.21
2023-07-25T15:24:43.286Z,19.19
2023-07-25T15:27:15.001Z,19.05
2023-07-25T15:29:46.820Z,18.74
2023-07-25T15:32:18.490Z,18.82
2023-07-25T15:34:50.272Z,18.52
2023-07-25T15:37:21.937Z,18.40
2023-07-25T15:39:54.873Z,18.57
2023-07-25T15:42:26.656Z,18.92
2023-07-25T15:44:58.513Z,18.92
2023-07-25T15:47:30.271Z,18.76
2023-07-25T15:50:02.029Z,18.51
2023-07-25T15:52:33.771Z,18.37
2023-07-25T15:55:05.881Z,18.35
2023-07-25T15:57:37.590Z,18.29
2023-07-25T16:00:10.306Z,18.19
2023-07-25T16:02:42.130Z,18.21
2023-07-25T16:05:14.119Z,18.22
2023-07-25T16:07:46.053Z,18.35
2023-07-25T16:10:17.760Z,18.63
2023-07-25T16:12:49.485Z,18.57
2023-07-25T16:15:21.127Z,18.40
2023-07-25T16:17:52.828Z,18.22
2023-07-25T16:20:24.511Z,18.05
2023-07-25T16:22:56.158Z,17.93
2023-07-25T16:25:27.887Z,17.85
2023-07-25T16:27:59.502Z,17.76
2023-07-25T16:30:31.103Z,17.71
2023-07-25T16:33:02.946Z,17.63
2023-07-25T16:35:34.536Z,17.69
2023-07-25T16:38:06.296Z,17.71
2023-07-25T16:40:38.039Z,17.65
2023-07-25T16:43:09.741Z,17.46
2023-07-25T16:45:41.383Z,17.51
2023-07-25T16:48:13.059Z,17.44
2023-07-25T16:50:44.600Z,17.49
2023-07-25T16:53:16.268Z,17.39
2023-07-25T16:55:47.814Z,17.28
2023-07-25T16:58:19.475Z,17.27
2023-07-25T17:00:52.417Z,17.22
2023-07-25T17:03:25.130Z,17.21
2023-07-25T17:05:56.989Z,17.21
2023-07-25T17:08:28.553Z,17.24
2023-07-25T17:11:07.837Z,17.09
2023-07-25T17:13:39.631Z,17.09
2023-07-25T17:16:11.321Z,17.13
2023-07-25T17:18:43.006Z,17.02
2023-07-25T17:21:18.395Z,16.95
2023-07-25T17:23:55.211Z,16.97
2023-07-25T17:26:26.874Z,16.95
2023-07-25T17:28:59.109Z,16.91
2023-07-25T17:31:31.059Z,16.86
2023-07-25T17:34:03.423Z,16.80
2023-07-25T17:36:35.143Z,16.81
2023-07-25T17:39:06.810Z,16.77
2023-07-25T17:41:38.592Z,16.76
2023-07-25T17:44:10.330Z,16.68
2023-07-25T17:46:41.963Z,16.66
2023-07-25T17:49:13.561Z,16.64
2023-07-25T17:51:45.274Z,16.65
2023-07-25T17:54:17.002Z,16.59
2023-07-25T17:56:49.083Z,16.62
2023-07-25T17:59:20.652Z,16.64
2023-07-25T18:01:52.313Z,16.57
2023-07-25T18:04:23.991Z,16.66
2023-07-25T18:06:55.931Z,16.64
2023-07-25T18:09:28.113Z,16.61
2023-07-25T18:11:59.768Z,16.59
2023-07-25T18:14:33.773Z,16.55
2023-07-25T18:17:07.631Z,16.50
2023-07-25T18:19:39.693Z,16.40
2023-07-25T18:22:11.231Z,16.36
2023-07-25T18:24:43.045Z,16.24
2023-07-25T18:27:14.669Z,16.18
2023-07-25T18:29:46.410Z,16.16
2023-07-25T18:32:18.033Z,16.15
2023-07-25T18:34:49.931Z,16.15
2023-07-25T18:37:21.588Z,16.10
2023-07-25T18:39:53.346Z,16.11
2023-07-25T18:42:24.988Z,16.12
2023-07-25T18:44:56.629Z,16.14
2023-07-25T18:47:34.926Z,16.20
2023-07-25T18:50:07.853Z,16.19
2023-07-25T18:52:39.502Z,16.19
2023-07-25T18:55:11.198Z,16.18
2023-07-25T18:57:42.865Z,16.12
2023-07-25T19:00:14.804Z,16.05
2023-07-25T19:02:46.733Z,16.05
2023-07-25T19:05:18.592Z,16.04
2023-07-25T19:07:50.291Z,16.01
2023-07-25T19:10:22.017Z,15.99
2023-07-25T19:12:53.557Z,15.90
2023-07-25T19:15:25.217Z,15.89
2023-07-25T19:17:56.931Z,15.85
2023-07-25T19:20:28.829Z,15.81
2023-07-25T19:23:07.856Z,15.74
2023-07-25T19:25:47.189Z,15.72
2023-07-25T19:28:18.797Z,15.62
2023-07-25T19:30:50.502Z,15.62
2023-07-25T19:33:22.724Z,15.61
2023-07-25T19:35:56.148Z,15.55
2023-07-25T19:38:29.059Z,15.50
2023-07-25T19:41:00.796Z,15.48
2023-07-25T19:43:33.314Z,15.46
2023-07-25T19:46:05.272Z,15.48
2023-07-25T19:48:37.159Z,15.41
2023-07-25T19:51:13.280Z,15.41
2023-07-25T19:53:45.068Z,15.36
2023-07-25T19:56:16.800Z,15.30
2023-07-25T19:58:49.070Z,15.27
2023-07-25T20:01:20.872Z,15.26
2023-07-25T20:03:52.695Z,15.20
2023-07-25T20:06:24.464Z,15.12
2023-07-25T20:08:56.165Z,15.06
2023-07-25T20:11:27.898Z,15.04
2023-07-25T20:13:59.699Z,15.01
2023-07-25T20:16:31.816Z,14.98
2023-07-25T20:19:03.957Z,14.97
2023-07-25T20:21:35.665Z,14.95
2023-07-25T20:24:12.459Z,14.92
2023-07-25T20:26:44.238Z,14.82
2023-07-25T20:29:16.016Z,14.82
2023-07-25T20:31:47.546Z,14.79
2023-07-25T20:34:19.320Z,14.69
2023-07-25T20:36:50.996Z,14.67
2023-07-25T20:39:22.678Z,14.72
2023-07-25T20:41:54.309Z,14.65
2023-07-25T20:44:25.953Z,14.66
2023-07-25T20:46:57.536Z,14.66
2023-07-25T20:49:29.257Z,14.66
2023-07-25T20:52:00.890Z,14.62
2023-07-25T20:54:32.536Z,14.63
2023-07-25T20:57:04.266Z,14.69
2023-07-25T20:59:35.887Z,14.62
2023-07-25T21:02:07.620Z,14.60
2023-07-25T21:04:39.300Z,14.59
2023-07-25T21:07:10.946Z,14.63
2023-07-25T21:09:42.761Z,14.49
2023-07-25T21:12:14.457Z,14.50
2023-07-25T21:14:46.263Z,14.51
2023-07-25T21:17:17.870Z,14.57
2023-07-25T21:19:49.625Z,14.64
2023-07-25T21:22:21.260Z,14.69
2023-07-25T21:24:53.278Z,14.68
2023-07-25T21:27:25.010Z,14.66
2023-07-25T21:29:56.770Z,14.50
2023-07-25T21:32:28.441Z,14.45
2023-07-25T21:35:00.364Z,14.43
2023-07-25T21:37:32.087Z,14.41
2023-07-25T21:40:04.090Z,14.41
2023-07-25T21:42:35.694Z,14.35
2023-07-25T21:45:08.028Z,14.32
2023-07-25T21:47:39.675Z,14.14
2023-07-25T21:50:12.990Z,14.08
2023-07-25T21:52:44.640Z,13.94
2023-07-25T21:55:16.299Z,13.93
2023-07-25T21:57:47.899Z,13.94
2023-07-25T22:00:19.560Z,13.90
2023-07-25T22:02:53.042Z,13.94
2023-07-25T22:05:24.808Z,13.96
2023-07-25T22:07:56.599Z,13.96
2023-07-25T22:10:28.333Z,13.96
2023-07-25T22:13:00.174Z,13.88
2023-07-25T22:15:32.118Z,13.78
2023-07-25T22:18:04.144Z,13.68
2023-07-25T22:20:50.768Z,13.59
2023-07-25T22:23:23.712Z,13.49
2023-07-25T22:26:02.857Z,13.46
2023-07-25T22:28:35.729Z,13.37
2023-07-25T22:31:07.490Z,13.34
2023-07-25T22:33:41.419Z,13.27
2023-07-25T22:36:13.114Z,13.27
2023-07-25T22:38:44.849Z,13.19
2023-07-25T22:41:16.644Z,13.15
2023-07-25T22:43:48.334Z,13.18
2023-07-25T22:46:20.162Z,13.06
2023-07-25T22:48:51.942Z,13.09
2023-07-25T22:51:23.930Z,13.03
2023-07-25T22:53:55.577Z,12.97
2023-07-25T22:56:27.254Z,12.98
2023-07-25T22:58:58.822Z,12.91
2023-07-25T23:01:30.412Z,12.84
2023-07-25T23:04:02.203Z,12.82
2023-07-25T23:06:34.124Z,12.83
2023-07-25T23:09:06.228Z,12.76
2023-07-25T23:11:37.860Z,12.76
2023-07-25T23:14:09.561Z,12.74
2023-07-25T23:16:41.172Z,12.68
2023-07-25T23:19:12.843Z,12.68
2023-07-25T23:21:44.549Z,12.68
2023-07-25T23:24:16.466Z,12.64
2023-07-25T23:26:48.289Z,12.61
2023-07-25T23:29:19.977Z,12.58
2023-07-25T23:31:51.639Z,12.55
2023-07-25T23:34:29.016Z,12.58
2023-07-25T23:37:00.992Z,12.57
2023-07-25T23:39:32.642Z,12.55
2023-07-25T23:42:04.798Z,12.56
2023-07-25T23:44:36.658Z,12.55
2023-07-25T23:47:08.326Z,12.47
2023-07-25T23:49:40.093Z,12.51
2023-07-25T23:52:11.652Z,12.49
2023-07-25T23:54:43.340Z,12.51
2023-07-25T23:57:15.081Z,12.50
2023-07-25T23:59:47.027Z,12.44
